createdAt,value
2018-06-19T00:00:28.616Z,3.20
2018-06-19T00:04:22.846Z,1.70
2018-06-19T00:08:17.095Z,3.03
2018-06-19T00:12:11.245Z,2.50
2018-06-19T00:16:05.391Z,2.63
2018-06-19T00:19:59.604Z,3.07
2018-06-19T00:23:53.767Z,2.65
2018-06-19T00:27:47.811Z,3.70
2018-06-19T00:31:41.846Z,3.00
2018-06-19T00:35:35.949Z,4.03
2018-06-19T00:39:29.550Z,2.62
2018-06-19T00:43:23.852Z,2.98
2018-06-19T00:47:17.908Z,3.90
2018-06-19T00:51:11.928Z,3.20
2018-06-19T00:55:05.980Z,4.00
2018-06-19T00:59:01.050Z,2.95
2018-06-19T01:02:55.125Z,3.40
2018-06-19T01:06:50.745Z,3.10
2018-06-19T01:10:44.682Z,2.87
2018-06-19T01:14:38.717Z,2.40
2018-06-19T01:18:32.753Z,2.57
2018-06-19T01:22:27.504Z,3.08
2018-06-19T01:26:22.321Z,5.13
2018-06-19T01:30:17.431Z,3.42
2018-06-19T01:34:11.513Z,2.70
2018-06-19T01:38:05.601Z,3.50
2018-06-19T01:42:00.290Z,3.10
2018-06-19T01:45:55.503Z,3.00
2018-06-19T01:49:49.070Z,3.20
2018-06-19T01:53:43.423Z,2.80
2018-06-19T01:57:37.476Z,3.63
2018-06-19T02:01:31.502Z,3.03
2018-06-19T02:05:25.614Z,3.60
2018-06-19T02:09:19.846Z,3.57
2018-06-19T02:13:14.084Z,3.70
2018-06-19T02:17:08.158Z,3.17
2018-06-19T02:21:02.404Z,3.80
2018-06-19T02:24:56.594Z,3.70
2018-06-19T02:28:50.620Z,3.50
2018-06-19T02:32:44.676Z,3.55
2018-06-19T02:36:39.124Z,3.98
2018-06-19T02:40:33.251Z,3.07
2018-06-19T02:44:29.338Z,4.73
2018-06-19T02:48:25.402Z,3.00
2018-06-19T02:52:20.157Z,3.17
2018-06-19T02:56:14.348Z,5.30
2018-06-19T03:00:08.655Z,3.43
2018-06-19T03:04:02.562Z,6.00
2018-06-19T03:07:56.553Z,4.35
2018-06-19T03:11:52.576Z,4.10
2018-06-19T03:15:46.597Z,6.40
2018-06-19T03:19:40.578Z,4.35
2018-06-19T03:23:39.559Z,5.17
2018-06-19T03:27:33.779Z,4.00
2018-06-19T03:31:28.040Z,4.53
2018-06-19T03:35:22.131Z,5.10
2018-06-19T03:39:16.362Z,6.30
2018-06-19T03:43:11.114Z,4.75
2018-06-19T03:47:05.179Z,4.60
2018-06-19T03:50:59.323Z,5.20
2018-06-19T03:54:54.660Z,4.87
2018-06-19T03:58:49.467Z,4.40
2018-06-19T04:02:43.580Z,5.50
2018-06-19T04:06:37.554Z,6.23
2018-06-19T04:10:31.754Z,5.57
2018-06-19T04:14:25.941Z,8.00
2018-06-19T04:18:20.353Z,5.00
2018-06-19T04:22:14.707Z,6.15
2018-06-19T04:26:08.947Z,5.85
2018-06-19T04:30:05.816Z,4.42
2018-06-19T04:34:00.615Z,4.97
2018-06-19T04:37:55.267Z,6.28
2018-06-19T04:41:49.488Z,8.05
2018-06-19T04:45:44.732Z,6.58
2018-06-19T04:49:39.997Z,4.53
2018-06-19T04:53:33.911Z,5.60
2018-06-19T04:57:28.013Z,5.03
2018-06-19T05:01:22.810Z,6.87
2018-06-19T05:05:16.976Z,6.93
2018-06-19T05:09:13.254Z,6.83
2018-06-19T05:13:08.296Z,6.87
2018-06-19T05:17:02.295Z,7.72
2018-06-19T05:20:56.420Z,8.20
2018-06-19T05:24:50.553Z,6.47
2018-06-19T05:28:44.718Z,8.27
2018-06-19T05:32:39.604Z,9.00
2018-06-19T05:36:38.606Z,11.00
2018-06-19T05:40:34.232Z,6.80
2018-06-19T05:44:28.728Z,7.58
2018-06-19T05:48:24.525Z,8.60
2018-06-19T05:52:19.073Z,11.70
2018-06-19T05:56:12.858Z,10.60
2018-06-19T06:00:08.069Z,9.33
2018-06-19T06:04:03.958Z,9.98
2018-06-19T06:07:58.273Z,12.30
2018-06-19T06:11:52.600Z,11.47
2018-06-19T06:15:47.132Z,12.20
2018-06-19T06:19:41.722Z,10.23
2018-06-19T06:23:36.410Z,8.90
2018-06-19T06:27:30.245Z,9.20
2018-06-19T06:31:24.787Z,9.47
2018-06-19T06:35:19.550Z,11.33
2018-06-19T06:39:14.269Z,11.57
2018-06-19T06:43:09.105Z,9.13
2018-06-19T06:47:02.702Z,9.77
2018-06-19T06:50:57.601Z,10.88
2018-06-19T06:54:51.845Z,10.10
2018-06-19T06:58:45.984Z,9.90
2018-06-19T07:02:40.284Z,9.83
2018-06-19T07:06:34.769Z,10.32
2018-06-19T07:10:28.834Z,9.58
2018-06-19T07:14:23.268Z,10.05
2018-06-19T07:18:17.361Z,9.90
2018-06-19T07:22:11.777Z,10.30
2018-06-19T07:26:08.458Z,13.77
2018-06-19T07:30:02.719Z,9.95
2018-06-19T07:33:56.713Z,10.70
2018-06-19T07:37:51.400Z,9.13
2018-06-19T07:41:45.029Z,9.23
2018-06-19T07:45:39.392Z,10.73
2018-06-19T07:49:33.697Z,11.48
2018-06-19T07:53:27.883Z,10.77
2018-06-19T07:57:22.439Z,9.47
2018-06-19T08:01:16.505Z,14.10
2018-06-19T08:05:13.063Z,18.75
2018-06-19T08:09:09.802Z,11.18
2018-06-19T08:13:04.169Z,12.55
2018-06-19T08:16:58.372Z,12.43
2018-06-19T08:20:52.793Z,11.88
2018-06-19T08:24:46.775Z,12.73
2018-06-19T08:28:41.160Z,14.27
2018-06-19T08:32:35.412Z,12.00
2018-06-19T08:36:29.459Z,12.23
2018-06-19T08:40:23.688Z,13.08
2018-06-19T08:44:17.399Z,13.40
2018-06-19T08:48:11.863Z,14.65
2018-06-19T08:52:06.144Z,14.40
2018-06-19T08:56:00.505Z,14.50
2018-06-19T08:59:55.102Z,19.30
2018-06-19T09:03:49.161Z,19.32
2018-06-19T09:07:43.423Z,17.90
2018-06-19T09:11:37.621Z,19.15
2018-06-19T09:15:31.840Z,19.47
2018-06-19T09:19:26.355Z,19.53
2018-06-19T09:23:20.972Z,19.50
2018-06-19T09:27:15.377Z,20.97
2018-06-19T09:31:09.743Z,21.93
2018-06-19T09:35:03.917Z,20.88
2018-06-19T09:38:58.569Z,20.95
2018-06-19T09:42:53.770Z,20.33
2018-06-19T09:46:47.366Z,19.30
2018-06-19T09:50:42.680Z,21.93
2018-06-19T09:54:37.008Z,16.97
2018-06-19T09:58:31.236Z,18.63
2018-06-19T10:02:25.369Z,16.80
2018-06-19T10:06:20.965Z,18.92
2018-06-19T10:10:17.018Z,18.82
2018-06-19T10:14:11.834Z,19.63
2018-06-19T10:18:05.971Z,18.73
2018-06-19T10:22:00.041Z,18.10
2018-06-19T10:25:54.154Z,24.47
2018-06-19T10:29:48.315Z,20.75
2018-06-19T10:33:44.484Z,18.62
2018-06-19T10:37:38.717Z,21.03
2018-06-19T10:41:32.535Z,16.90
2018-06-19T10:45:29.628Z,16.35
2018-06-19T10:49:27.231Z,17.73
2018-06-19T10:53:21.673Z,17.02
2018-06-19T10:57:16.555Z,18.10
2018-06-19T11:01:11.260Z,17.70
2018-06-19T11:05:06.140Z,17.95
2018-06-19T11:09:00.182Z,16.07
2018-06-19T11:12:55.672Z,16.70
2018-06-19T11:16:49.887Z,17.75
2018-06-19T11:20:44.062Z,17.67
2018-06-19T11:24:38.248Z,17.15
2018-06-19T11:28:33.549Z,18.73
2018-06-19T11:32:28.045Z,16.07
2018-06-19T11:36:28.192Z,19.32
2018-06-19T11:40:23.389Z,21.20
2018-06-19T11:44:17.651Z,14.68
2018-06-19T11:48:12.453Z,16.35
2018-06-19T11:52:08.095Z,16.20
2018-06-19T12:00:25.928Z,17.32
2018-06-19T12:04:20.681Z,15.72
2018-06-19T12:08:15.650Z,15.93
2018-06-19T12:12:09.770Z,15.07
2018-06-19T12:16:04.242Z,15.97
2018-06-19T12:19:59.082Z,14.03
2018-06-19T12:23:53.848Z,14.63
2018-06-19T12:27:49.323Z,14.55
2018-06-19T12:31:45.444Z,16.12
2018-06-19T12:35:39.555Z,14.38
2018-06-19T12:39:34.763Z,15.07
2018-06-19T12:43:28.287Z,16.07
2018-06-19T12:47:23.350Z,14.27
2018-06-19T12:52:00.509Z,15.72
2018-06-19T12:56:05.931Z,12.68
2018-06-19T12:59:59.896Z,10.00
2018-06-19T13:04:05.290Z,9.13
2018-06-19T13:08:00.316Z,10.03
2018-06-19T13:11:54.459Z,11.87
2018-06-19T13:15:49.300Z,13.37
2018-06-19T13:19:55.869Z,11.90
2018-06-19T13:23:50.860Z,11.03
2018-06-19T13:27:47.353Z,12.00
2018-06-19T13:31:48.550Z,9.60
2018-06-19T13:35:42.711Z,8.70
2018-06-19T13:39:37.727Z,9.97
2018-06-19T13:43:37.195Z,10.28
2018-06-19T13:47:31.550Z,10.07
2018-06-19T13:51:26.540Z,9.03
2018-06-19T13:57:35.927Z,9.63
2018-06-19T14:01:32.032Z,10.10
2018-06-19T14:05:26.819Z,11.37
2018-06-19T14:11:36.607Z,10.87
2018-06-19T14:15:35.100Z,9.87
2018-06-19T14:19:32.464Z,9.80
2018-06-19T14:34:41.659Z,7.65
2018-06-19T14:38:36.799Z,8.38
2018-06-19T14:42:32.243Z,8.10
2018-06-19T14:46:27.903Z,8.08
2018-06-19T14:50:22.000Z,9.13
2018-06-19T14:54:19.267Z,8.90
2018-06-19T14:58:13.680Z,8.95
2018-06-19T15:02:07.239Z,8.80
2018-06-19T15:06:01.473Z,7.47
2018-06-19T15:09:55.870Z,10.37
2018-06-19T15:13:51.655Z,9.67
2018-06-19T15:17:46.200Z,9.25
2018-06-19T15:21:40.264Z,9.30
2018-06-19T15:25:34.513Z,10.48
2018-06-19T15:29:29.325Z,10.63
2018-06-19T15:33:23.609Z,11.15
2018-06-19T15:37:18.531Z,9.80
2018-06-19T15:41:12.818Z,9.43
2018-06-19T15:45:07.190Z,8.28
2018-06-19T15:49:01.327Z,8.73
2018-06-19T15:52:55.354Z,8.47
2018-06-19T15:56:50.663Z,8.00
2018-06-19T16:00:44.805Z,7.47
2018-06-19T16:04:38.840Z,9.20
2018-06-19T16:08:33.306Z,7.25
2018-06-19T16:12:27.154Z,7.80
2018-06-19T16:16:21.162Z,6.12
2018-06-19T16:20:15.294Z,6.72
2018-06-19T16:24:09.984Z,7.30
2018-06-19T16:28:04.299Z,7.78
2018-06-19T16:32:00.261Z,6.95
2018-06-19T16:35:55.414Z,7.22
2018-06-19T16:39:48.322Z,7.50
2018-06-19T16:43:42.464Z,6.23
2018-06-19T16:47:36.634Z,8.78
2018-06-19T16:51:30.897Z,5.37
2018-06-19T16:55:26.705Z,4.72
2018-06-19T16:59:20.736Z,7.17
2018-06-19T17:03:15.173Z,5.97
2018-06-19T17:07:11.521Z,6.10
2018-06-19T17:11:06.138Z,7.55
2018-06-19T17:15:00.172Z,6.60
2018-06-19T17:18:54.344Z,6.25
2018-06-19T17:22:48.732Z,6.42
2018-06-19T17:26:42.848Z,7.47
2018-06-19T17:30:38.366Z,6.95
2018-06-19T17:34:32.442Z,7.60
2018-06-19T17:38:29.633Z,7.92
2018-06-19T17:42:23.884Z,8.77
2018-06-19T17:46:17.947Z,7.60
2018-06-19T17:50:12.776Z,8.50
2018-06-19T17:54:09.084Z,9.05
2018-06-19T17:58:03.992Z,10.05
2018-06-19T18:01:57.881Z,10.23
2018-06-19T18:05:51.528Z,9.93
2018-06-19T18:09:48.171Z,13.25
2018-06-19T18:13:43.117Z,20.10
2018-06-19T18:17:38.629Z,11.88
2018-06-19T18:21:32.695Z,14.40
2018-06-19T18:25:29.698Z,13.68
2018-06-19T18:29:27.432Z,12.23
2018-06-19T18:33:25.382Z,11.60
2018-06-19T18:37:20.628Z,11.67
2018-06-19T18:41:15.968Z,10.63
2018-06-19T18:45:10.221Z,10.78
2018-06-19T18:49:03.817Z,11.12
2018-06-19T18:52:58.756Z,11.20
2018-06-19T18:56:53.921Z,10.60
2018-06-19T19:00:48.259Z,11.20
2018-06-19T19:04:42.420Z,11.33
2018-06-19T19:08:38.341Z,10.70
2018-06-19T19:12:32.472Z,9.45
2018-06-19T19:16:31.871Z,10.03
2018-06-19T19:20:26.081Z,11.22
2018-06-19T19:24:20.092Z,11.08
2018-06-19T19:28:19.461Z,12.07
2018-06-19T19:32:13.422Z,11.20
2018-06-19T19:36:10.733Z,9.83
2018-06-19T19:40:05.080Z,11.28
2018-06-19T19:44:03.308Z,10.58
2018-06-19T19:48:03.544Z,11.23
2018-06-19T19:51:57.647Z,13.63
2018-06-19T19:55:58.694Z,14.15
2018-06-19T19:59:52.983Z,15.03
2018-06-19T20:03:47.791Z,13.63
2018-06-19T20:07:42.240Z,14.55
2018-06-19T20:11:36.478Z,19.33
2018-06-19T20:15:30.878Z,18.70
2018-06-19T20:19:25.576Z,15.25
2018-06-19T20:23:20.374Z,15.53
2018-06-19T20:27:14.411Z,12.82
2018-06-19T20:31:08.532Z,14.83
2018-06-19T20:35:05.723Z,14.47
2018-06-19T20:39:00.460Z,14.38
2018-06-19T20:42:56.952Z,17.35
2018-06-19T20:46:54.938Z,18.15
2018-06-19T20:50:48.840Z,13.72
2018-06-19T20:54:43.057Z,14.38
2018-06-19T20:58:37.124Z,14.70
2018-06-19T21:02:31.274Z,17.57
2018-06-19T21:06:25.348Z,16.30
2018-06-19T21:10:22.779Z,14.93
2018-06-19T21:14:17.231Z,15.80
2018-06-19T21:18:11.854Z,14.85
2018-06-19T21:22:06.292Z,18.25
2018-06-19T21:26:01.884Z,12.40
2018-06-19T21:29:55.917Z,15.20
2018-06-19T21:33:51.227Z,14.97
2018-06-19T21:37:45.205Z,14.75
2018-06-19T21:41:39.998Z,14.63
2018-06-19T21:45:34.121Z,16.82
2018-06-19T21:49:28.329Z,17.62
2018-06-19T21:53:22.464Z,13.75
2018-06-19T21:57:16.880Z,16.25
2018-06-19T22:01:11.717Z,16.40
2018-06-19T22:05:05.639Z,18.62
2018-06-19T22:08:59.633Z,17.40
2018-06-19T22:12:53.762Z,15.75
2018-06-19T22:16:47.823Z,16.10
2018-06-19T22:20:42.260Z,17.45
2018-06-19T22:24:36.442Z,16.82
2018-06-19T22:28:30.468Z,17.45
2018-06-19T22:32:31.221Z,18.52
2018-06-19T22:36:25.191Z,17.37
2018-06-19T22:40:19.221Z,17.67
2018-06-19T22:44:12.749Z,16.73
2018-06-19T22:48:06.805Z,17.37
2018-06-19T22:52:00.798Z,21.85
2018-06-19T22:55:54.776Z,19.20
2018-06-19T22:59:48.723Z,19.77
2018-06-19T23:03:42.891Z,19.33
2018-06-19T23:07:37.089Z,18.75
2018-06-19T23:11:31.096Z,17.75
2018-06-19T23:15:25.523Z,18.80
2018-06-19T23:19:19.737Z,18.67
2018-06-19T23:23:13.698Z,18.10
2018-06-19T23:27:07.728Z,18.50
2018-06-19T23:31:02.010Z,18.07
2018-06-19T23:34:56.023Z,18.85
2018-06-19T23:38:49.790Z,17.85
2018-06-19T23:42:43.964Z,19.80
2018-06-19T23:46:38.513Z,17.10
2018-06-19T23:50:32.863Z,18.00
2018-06-19T23:54:26.990Z,19.67
2018-06-19T23:58:20.926Z,17.92
